createdAt,value
2017-07-12T00:00:10.248Z,8.57
2017-07-12T00:02:38.442Z,8.27
2017-07-12T00:05:07.381Z,8.05
2017-07-12T00:07:35.544Z,8.70
2017-07-12T00:10:03.809Z,9.23
2017-07-12T00:12:31.950Z,9.25
2017-07-12T00:15:00.105Z,10.50
2017-07-12T00:17:28.293Z,9.80
2017-07-12T00:19:56.446Z,10.00
2017-07-12T00:22:24.612Z,9.80
2017-07-12T00:24:52.821Z,10.80
2017-07-12T00:27:21.934Z,9.65
2017-07-12T00:29:50.853Z,10.75
2017-07-12T00:32:19.070Z,10.77
2017-07-12T00:34:47.234Z,10.40
2017-07-12T00:37:15.409Z,11.18
2017-07-12T00:39:43.614Z,10.27
2017-07-12T00:42:11.801Z,11.27
2017-07-12T00:44:40.741Z,10.25
2017-07-12T00:47:08.932Z,11.30
2017-07-12T00:49:37.108Z,11.35
2017-07-12T00:52:05.280Z,11.65
2017-07-12T00:54:33.545Z,11.63
2017-07-12T00:57:01.693Z,11.75
2017-07-12T00:59:29.884Z,11.00
2017-07-12T01:01:58.086Z,13.10
2017-07-12T01:04:26.265Z,13.50
2017-07-12T01:06:54.425Z,11.88
2017-07-12T01:09:22.607Z,13.20
2017-07-12T01:11:50.771Z,15.13
2017-07-12T01:14:18.948Z,14.50
2017-07-12T01:16:47.148Z,14.63
2017-07-12T01:19:15.306Z,16.25
2017-07-12T01:21:43.462Z,14.60
2017-07-12T01:24:11.650Z,14.35
2017-07-12T01:26:39.821Z,15.73
2017-07-12T01:29:08.006Z,15.38
2017-07-12T01:31:36.187Z,15.77
2017-07-12T01:34:04.375Z,15.82
2017-07-12T01:36:32.553Z,16.48
2017-07-12T01:39:00.756Z,15.60
2017-07-12T01:41:28.931Z,17.10
2017-07-12T01:43:57.105Z,15.85
2017-07-12T01:46:25.296Z,15.73
2017-07-12T01:48:53.483Z,17.02
2017-07-12T01:51:21.660Z,17.50
2017-07-12T01:53:49.846Z,15.05
2017-07-12T01:56:18.025Z,15.57
2017-07-12T01:58:46.188Z,17.25
2017-07-12T02:01:14.374Z,15.60
2017-07-12T02:03:42.557Z,14.75
2017-07-12T02:06:10.734Z,15.30
2017-07-12T02:08:38.942Z,14.50
2017-07-12T02:11:07.873Z,14.07
2017-07-12T02:13:36.042Z,13.18
2017-07-12T02:16:04.244Z,13.88
2017-07-12T02:18:32.421Z,13.32
2017-07-12T02:21:00.579Z,12.40
2017-07-12T02:23:28.764Z,13.73
2017-07-12T02:25:56.949Z,13.40
2017-07-12T02:28:25.128Z,13.68
2017-07-12T02:30:53.342Z,13.32
2017-07-12T02:33:21.517Z,14.13
2017-07-12T02:35:49.672Z,13.52
2017-07-12T02:38:18.646Z,15.10
2017-07-12T02:40:46.803Z,13.77
2017-07-12T02:43:14.963Z,15.90
2017-07-12T02:45:43.153Z,16.17
2017-07-12T02:48:11.304Z,14.70
2017-07-12T02:50:39.460Z,16.92
2017-07-12T02:53:07.664Z,15.18
2017-07-12T02:55:35.819Z,16.37
2017-07-12T02:58:03.979Z,17.15
2017-07-12T03:00:32.188Z,16.45
2017-07-12T03:03:00.341Z,16.30
2017-07-12T03:05:28.489Z,18.20
2017-07-12T03:07:57.461Z,16.77
2017-07-12T03:10:25.642Z,18.45
2017-07-12T03:12:53.818Z,17.37
2017-07-12T03:15:22.002Z,19.08
2017-07-12T03:17:50.183Z,19.08
2017-07-12T03:20:19.120Z,19.15
2017-07-12T03:22:47.401Z,17.70
2017-07-12T03:25:15.582Z,17.65
2017-07-12T03:27:43.741Z,18.95
2017-07-12T03:30:11.944Z,17.55
2017-07-12T03:32:40.102Z,19.95
2017-07-12T03:35:08.282Z,20.50
2017-07-12T03:37:36.472Z,19.62
2017-07-12T03:40:04.656Z,21.08
2017-07-12T03:42:32.811Z,21.70
2017-07-12T03:45:01.016Z,22.52
2017-07-12T03:47:29.191Z,24.95
2017-07-12T03:49:58.135Z,23.52
2017-07-12T03:52:26.337Z,24.17
2017-07-12T03:54:54.493Z,27.35
2017-07-12T03:57:22.652Z,27.50
2017-07-12T03:59:50.843Z,28.33
2017-07-12T04:02:19.005Z,30.08
2017-07-12T04:04:47.187Z,27.37
2017-07-12T04:07:15.357Z,28.92
2017-07-12T04:09:43.555Z,28.67
2017-07-12T04:12:12.527Z,26.67
2017-07-12T04:14:40.681Z,26.98
2017-07-12T04:17:08.867Z,29.00
2017-07-12T04:19:37.021Z,27.23
2017-07-12T04:22:05.214Z,26.15
2017-07-12T04:24:33.385Z,28.12
2017-07-12T04:27:01.574Z,28.55
2017-07-12T04:29:29.787Z,28.87
2017-07-12T04:31:57.968Z,28.75
2017-07-12T04:34:26.906Z,28.65
2017-07-12T04:36:55.072Z,28.75
2017-07-12T04:39:23.231Z,31.37
2017-07-12T04:41:51.442Z,30.90
2017-07-12T04:44:19.617Z,30.37
2017-07-12T04:46:47.797Z,32.45
2017-07-12T04:49:16.326Z,31.98
2017-07-12T04:51:44.502Z,30.27
2017-07-12T04:54:12.719Z,29.60
2017-07-12T04:56:40.892Z,26.92
2017-07-12T04:59:09.068Z,27.75
2017-07-12T05:01:37.272Z,29.15
2017-07-12T05:04:05.447Z,28.92
2017-07-12T05:06:33.631Z,27.80
2017-07-12T05:09:02.551Z,28.35
2017-07-12T05:11:30.728Z,29.67
2017-07-12T05:13:58.928Z,29.55
2017-07-12T05:16:27.083Z,30.20
2017-07-12T05:18:55.291Z,32.30
2017-07-12T05:21:23.470Z,29.02
2017-07-12T05:23:51.640Z,27.48
2017-07-12T05:26:19.814Z,26.65
2017-07-12T05:28:48.003Z,27.35
2017-07-12T05:31:16.195Z,26.85
2017-07-12T05:33:45.122Z,27.42
2017-07-12T05:36:13.274Z,25.70
2017-07-12T05:38:42.227Z,24.20
2017-07-12T05:41:10.405Z,25.55
2017-07-12T05:43:38.652Z,30.80
2017-07-12T05:46:06.807Z,25.73
2017-07-12T05:48:34.962Z,24.55
2017-07-12T05:51:03.161Z,25.08
2017-07-12T05:53:31.325Z,25.88
2017-07-12T05:55:59.512Z,24.27
2017-07-12T05:58:28.560Z,23.25
2017-07-12T06:00:56.732Z,25.27
2017-07-12T06:03:24.902Z,21.90
2017-07-12T06:05:53.060Z,22.62
2017-07-12T06:08:21.260Z,22.50
2017-07-12T06:10:49.414Z,23.62
2017-07-12T06:13:17.593Z,25.33
2017-07-12T06:15:45.779Z,22.50
2017-07-12T06:18:13.951Z,26.20
2017-07-12T06:20:42.135Z,25.55
2017-07-12T06:23:10.297Z,22.90
2017-07-12T06:25:38.472Z,23.05
2017-07-12T06:28:06.659Z,23.20
2017-07-12T06:30:34.837Z,22.42
2017-07-12T06:33:03.041Z,21.85
2017-07-12T06:35:31.195Z,22.52
2017-07-12T06:38:00.140Z,21.92
2017-07-12T06:40:28.336Z,18.95
2017-07-12T06:42:56.515Z,19.60
2017-07-12T06:45:24.720Z,19.23
2017-07-12T06:47:53.642Z,19.83
2017-07-12T06:50:21.805Z,21.48
2017-07-12T06:52:50.003Z,19.00
2017-07-12T06:55:18.156Z,20.23
2017-07-12T06:57:46.335Z,20.08
2017-07-12T07:00:14.492Z,20.62
2017-07-12T07:02:42.681Z,18.08
2017-07-12T07:05:10.875Z,19.23
2017-07-12T07:07:39.044Z,20.67
2017-07-12T07:10:07.199Z,18.00
2017-07-12T07:12:35.375Z,19.15
2017-07-12T07:15:03.563Z,18.95
2017-07-12T07:17:31.741Z,16.55
2017-07-12T07:19:59.911Z,15.55
2017-07-12T07:22:28.065Z,14.68
2017-07-12T07:24:56.261Z,15.98
2017-07-12T07:27:24.419Z,17.00
2017-07-12T07:29:52.636Z,18.87
2017-07-12T07:32:20.835Z,21.12
2017-07-12T07:34:49.012Z,22.25
2017-07-12T07:37:17.203Z,20.00
2017-07-12T07:39:46.161Z,20.37
2017-07-12T07:42:14.322Z,17.15
2017-07-12T07:44:42.538Z,17.17
2017-07-12T07:47:11.466Z,15.68
2017-07-12T07:49:40.691Z,16.33
2017-07-12T07:52:08.862Z,15.80
2017-07-12T07:54:37.019Z,16.05
2017-07-12T07:57:05.977Z,16.65
2017-07-12T07:59:34.153Z,16.12
2017-07-12T08:02:02.349Z,16.75
2017-07-12T08:04:30.521Z,14.48
2017-07-12T08:06:58.698Z,16.40
2017-07-12T08:09:26.896Z,16.20
2017-07-12T08:11:55.059Z,15.45
2017-07-12T08:14:23.600Z,17.17
2017-07-12T08:16:51.766Z,15.13
2017-07-12T08:19:19.920Z,16.50
2017-07-12T08:21:48.142Z,16.95
2017-07-12T08:24:16.318Z,20.60
2017-07-12T08:26:44.537Z,16.95
2017-07-12T08:29:12.694Z,15.95
2017-07-12T08:31:41.614Z,14.77
2017-07-12T08:34:09.793Z,16.50
2017-07-12T08:36:37.958Z,17.52
2017-07-12T08:39:06.157Z,16.83
2017-07-12T08:41:34.306Z,17.80
2017-07-12T08:44:02.493Z,18.70
2017-07-12T08:46:30.667Z,18.25
2017-07-12T08:48:58.828Z,18.83
2017-07-12T08:51:27.045Z,17.65
2017-07-12T08:53:55.223Z,17.67
2017-07-12T08:56:23.410Z,18.00
2017-07-12T08:58:51.605Z,19.17
2017-07-12T09:01:20.535Z,19.52
2017-07-12T09:03:48.721Z,18.65
2017-07-12T09:06:16.902Z,18.52
2017-07-12T09:08:45.084Z,19.60
2017-07-12T09:11:13.283Z,18.83
2017-07-12T09:13:41.489Z,21.37
2017-07-12T09:16:09.807Z,21.35
2017-07-12T09:18:38.019Z,21.95
2017-07-12T09:21:06.962Z,21.80
2017-07-12T09:23:35.156Z,22.00
2017-07-12T09:33:28.536Z,23.95
2017-07-12T09:35:56.743Z,23.12
2017-07-12T09:38:24.907Z,24.08
2017-07-12T09:40:53.089Z,21.67
2017-07-12T09:43:21.251Z,23.75
2017-07-12T09:45:49.430Z,23.73
2017-07-12T09:48:17.633Z,22.70
2017-07-12T09:50:45.797Z,23.77
2017-07-12T09:53:14.009Z,22.62
2017-07-12T09:55:42.199Z,23.05
2017-07-12T09:58:10.374Z,24.60
2017-07-12T10:00:38.561Z,22.77
2017-07-12T10:03:06.710Z,22.73
2017-07-12T10:05:34.909Z,22.30
2017-07-12T10:08:03.079Z,25.10
2017-07-12T10:10:31.252Z,24.63
2017-07-12T10:12:59.442Z,22.85
2017-07-12T10:15:27.603Z,21.67
2017-07-12T10:17:55.790Z,20.40
2017-07-12T10:20:23.941Z,22.70
2017-07-12T10:22:52.098Z,23.55
2017-07-12T10:25:21.055Z,22.48
2017-07-12T10:27:49.226Z,24.12
2017-07-12T10:30:17.421Z,24.02
2017-07-12T10:32:45.579Z,24.98
2017-07-12T10:35:13.739Z,24.40
2017-07-12T10:37:41.912Z,23.90
2017-07-12T10:40:10.085Z,27.33
2017-07-12T10:42:38.274Z,25.37
2017-07-12T10:45:06.429Z,24.20
2017-07-12T10:47:34.613Z,26.12
2017-07-12T10:50:02.805Z,27.98
2017-07-12T10:52:30.981Z,28.30
2017-07-12T10:54:59.165Z,22.60
2017-07-12T10:57:27.323Z,23.27
2017-07-12T10:59:55.508Z,24.20
2017-07-12T11:02:23.726Z,25.52
2017-07-12T11:04:51.901Z,17.02
2017-07-12T11:07:20.082Z,16.00
2017-07-12T11:09:48.234Z,16.90
2017-07-12T11:12:17.182Z,18.50
2017-07-12T11:14:45.355Z,20.45
2017-07-12T11:17:13.534Z,23.95
2017-07-12T11:19:41.723Z,23.55
2017-07-12T11:22:09.887Z,24.65
2017-07-12T11:24:38.051Z,22.58
2017-07-12T11:27:06.227Z,21.98
2017-07-12T11:29:34.387Z,21.73
2017-07-12T11:32:02.579Z,18.00
2017-07-12T11:34:30.754Z,18.30
2017-07-12T11:36:58.929Z,16.55
2017-07-12T11:39:27.104Z,18.45
2017-07-12T11:41:55.258Z,18.05
2017-07-12T11:44:23.454Z,19.35
2017-07-12T11:46:51.609Z,17.17
2017-07-12T11:49:19.771Z,17.70
2017-07-12T11:51:47.965Z,17.37
2017-07-12T11:54:16.141Z,17.00
2017-07-12T11:56:44.341Z,15.45
2017-07-12T11:59:12.521Z,11.57
2017-07-12T12:01:40.697Z,10.32
2017-07-12T12:04:08.896Z,8.25
2017-07-12T12:06:37.835Z,8.00
2017-07-12T12:09:05.988Z,7.28
2017-07-12T12:11:34.163Z,8.30
2017-07-12T12:14:02.333Z,8.13
2017-07-12T12:16:30.484Z,9.32
2017-07-12T12:18:59.445Z,5.78
2017-07-12T12:21:27.589Z,5.85
2017-07-12T12:23:55.769Z,5.57
2017-07-12T12:26:23.944Z,6.32
2017-07-12T12:28:52.109Z,6.20
2017-07-12T12:31:20.301Z,5.95
2017-07-12T12:33:48.469Z,5.70
2017-07-12T12:36:16.669Z,5.40
2017-07-12T12:38:44.821Z,4.30
2017-07-12T12:41:12.972Z,3.60
2017-07-12T12:43:41.146Z,3.75
2017-07-12T12:46:09.299Z,3.60
2017-07-12T12:48:38.269Z,3.53
2017-07-12T12:51:06.420Z,3.80
2017-07-12T12:53:34.570Z,4.60
2017-07-12T12:56:02.746Z,4.68
2017-07-12T12:58:30.912Z,5.05
2017-07-12T13:00:59.102Z,5.53
2017-07-12T13:03:27.255Z,5.43
2017-07-12T13:05:55.406Z,5.10
2017-07-12T13:08:23.591Z,5.65
2017-07-12T13:10:52.514Z,6.03
2017-07-12T13:13:20.713Z,6.43
2017-07-12T13:15:48.889Z,6.68
2017-07-12T13:18:17.034Z,7.05
2017-07-12T13:20:45.206Z,6.35
2017-07-12T13:23:13.361Z,6.50
2017-07-12T13:25:42.320Z,4.40
2017-07-12T13:28:10.497Z,4.45
2017-07-12T13:30:38.674Z,4.53
2017-07-12T13:33:06.865Z,3.90
2017-07-12T13:35:35.841Z,4.20
2017-07-12T13:38:04.005Z,4.35
2017-07-12T13:40:32.177Z,4.60
2017-07-12T13:43:00.402Z,5.20
2017-07-12T13:45:29.319Z,5.25
2017-07-12T13:47:57.499Z,5.40
2017-07-12T13:50:25.695Z,5.15
2017-07-12T13:52:53.845Z,5.18
2017-07-12T13:55:22.003Z,5.45
2017-07-12T13:57:50.186Z,5.90
2017-07-12T14:00:18.361Z,5.90
2017-07-12T14:02:46.539Z,6.00
2017-07-12T14:05:14.709Z,4.93
2017-07-12T14:07:42.885Z,4.05
2017-07-12T14:10:11.069Z,3.05
2017-07-12T14:12:39.240Z,3.30
2017-07-12T14:15:07.453Z,3.08
2017-07-12T14:17:35.629Z,3.53
2017-07-12T14:20:03.781Z,3.05
2017-07-12T14:22:31.965Z,2.92
2017-07-12T14:25:00.128Z,2.75
2017-07-12T14:27:28.377Z,3.40
2017-07-12T14:29:56.474Z,2.53
2017-07-12T14:32:24.645Z,2.45
2017-07-12T14:34:52.825Z,2.87
2017-07-12T14:37:20.975Z,2.90
2017-07-12T14:39:49.146Z,2.72
2017-07-12T14:42:17.313Z,2.50
2017-07-12T14:44:45.473Z,2.35
2017-07-12T14:47:14.425Z,2.50
2017-07-12T14:49:42.612Z,2.90
2017-07-12T14:52:10.786Z,2.60
2017-07-12T14:54:38.948Z,2.22
2017-07-12T14:57:07.167Z,2.55
2017-07-12T14:59:35.348Z,2.47
2017-07-12T15:02:04.292Z,3.00
2017-07-12T15:04:32.478Z,3.30
2017-07-12T15:07:00.650Z,3.15
2017-07-12T15:09:28.811Z,3.20
2017-07-12T15:11:56.984Z,3.20
2017-07-12T15:14:25.149Z,3.60
2017-07-12T15:16:53.354Z,3.87
2017-07-12T15:19:21.516Z,3.12
2017-07-12T15:21:49.681Z,3.30
2017-07-12T15:24:17.860Z,2.92
2017-07-12T15:26:46.028Z,3.35
2017-07-12T15:29:14.257Z,3.08
2017-07-12T15:31:43.199Z,3.70
2017-07-12T15:34:11.372Z,3.00
2017-07-12T15:36:39.537Z,3.70
2017-07-12T15:39:07.717Z,4.30
2017-07-12T15:41:35.914Z,2.80
2017-07-12T15:44:04.081Z,3.15
2017-07-12T15:46:32.249Z,3.37
2017-07-12T15:49:00.428Z,2.95
2017-07-12T15:51:28.596Z,5.18
2017-07-12T15:53:56.774Z,4.35
2017-07-12T15:56:25.002Z,3.45
2017-07-12T15:58:53.117Z,4.85
2017-07-12T16:01:21.307Z,4.53
2017-07-12T16:03:49.522Z,4.93
2017-07-12T16:06:18.217Z,4.65
2017-07-12T16:08:46.369Z,5.40
2017-07-12T16:11:15.299Z,6.12
2017-07-12T16:13:43.496Z,7.20
2017-07-12T16:16:11.665Z,6.40
2017-07-12T16:18:39.861Z,6.25
2017-07-12T16:21:08.006Z,6.28
2017-07-12T16:23:36.181Z,7.05
2017-07-12T16:26:04.353Z,6.20
2017-07-12T16:28:32.508Z,6.30
2017-07-12T16:31:00.714Z,7.60
2017-07-12T16:33:28.863Z,7.82
2017-07-12T16:35:57.019Z,7.40
2017-07-12T16:38:25.971Z,7.97
2017-07-12T16:40:54.151Z,6.07
2017-07-12T16:43:22.343Z,7.20
2017-07-12T16:45:50.513Z,8.18
2017-07-12T16:48:18.695Z,6.40
2017-07-12T16:50:46.893Z,5.90
2017-07-12T16:53:15.077Z,6.80
2017-07-12T16:55:43.278Z,7.70
2017-07-12T16:58:11.455Z,7.70
2017-07-12T17:00:39.607Z,15.10
2017-07-12T17:03:07.793Z,7.05
2017-07-12T17:05:35.956Z,6.12
2017-07-12T17:08:04.158Z,6.78
2017-07-12T17:10:32.311Z,6.03
2017-07-12T17:13:00.484Z,6.90
2017-07-12T17:15:28.674Z,6.93
2017-07-12T17:17:56.840Z,5.65
2017-07-12T17:20:25.039Z,6.25
2017-07-12T17:22:53.191Z,7.32
2017-07-12T17:25:21.377Z,6.00
2017-07-12T17:27:49.580Z,6.72
2017-07-12T17:30:17.748Z,6.22
2017-07-12T17:32:45.996Z,5.90
2017-07-12T17:35:14.121Z,6.87
2017-07-12T17:37:43.065Z,10.48
2017-07-12T17:40:11.257Z,7.30
2017-07-12T17:42:39.414Z,11.65
2017-07-12T17:45:07.605Z,10.40
2017-07-12T17:47:35.775Z,7.43
2017-07-12T17:50:03.946Z,5.45
2017-07-12T17:52:32.143Z,9.52
2017-07-12T17:55:00.322Z,7.95
2017-07-12T17:57:28.499Z,6.05
2017-07-12T17:59:56.666Z,6.45
2017-07-12T18:02:24.842Z,6.93
2017-07-12T18:04:53.027Z,9.55
2017-07-12T18:07:21.182Z,7.37
2017-07-12T18:09:49.357Z,5.97
2017-07-12T18:12:17.546Z,4.70
2017-07-12T18:14:45.699Z,4.65
2017-07-12T18:17:13.878Z,4.10
2017-07-12T18:19:42.052Z,5.55
2017-07-12T18:22:10.210Z,4.75
2017-07-12T18:24:38.378Z,3.33
2017-07-12T18:27:06.545Z,3.90
2017-07-12T18:29:34.759Z,3.90
2017-07-12T18:32:02.949Z,2.70
2017-07-12T18:34:31.121Z,3.28
2017-07-12T18:36:59.309Z,3.17
2017-07-12T18:39:28.253Z,4.18
2017-07-12T18:44:54.994Z,2.60
2017-07-12T18:47:23.202Z,2.95
2017-07-12T18:49:51.356Z,2.35
2017-07-12T18:52:19.520Z,2.70
2017-07-12T18:54:47.710Z,3.42
2017-07-12T18:57:15.884Z,2.58
2017-07-12T18:59:44.085Z,2.72
2017-07-12T19:02:12.257Z,2.67
2017-07-12T19:04:40.410Z,2.65
2017-07-12T19:07:08.603Z,2.55
2017-07-12T19:09:36.779Z,2.83
2017-07-12T19:12:04.969Z,2.60
2017-07-12T19:14:33.129Z,2.83
2017-07-12T19:17:01.345Z,2.22
2017-07-12T19:19:30.259Z,3.55
2017-07-12T19:21:58.426Z,2.70
2017-07-12T19:24:26.629Z,3.25
2017-07-12T19:26:54.803Z,2.90
2017-07-12T19:29:22.975Z,3.25
2017-07-12T19:31:51.148Z,2.92
2017-07-12T19:34:20.058Z,3.10
2017-07-12T19:36:48.261Z,3.58
2017-07-12T19:39:16.424Z,3.28
2017-07-12T19:41:44.602Z,3.55
2017-07-12T19:44:12.789Z,3.67
2017-07-12T19:46:40.935Z,4.30
2017-07-12T19:49:09.141Z,3.40
2017-07-12T19:51:37.313Z,5.87
2017-07-12T19:54:05.483Z,3.40
2017-07-12T19:56:33.669Z,4.10
2017-07-12T19:59:01.825Z,4.75
2017-07-12T20:01:30.007Z,3.95
2017-07-12T20:03:58.162Z,4.20
2017-07-12T20:06:26.345Z,3.83
2017-07-12T20:08:54.512Z,3.33
2017-07-12T20:11:22.700Z,4.45
2017-07-12T20:13:50.896Z,4.95
2017-07-12T20:16:19.052Z,3.60
2017-07-12T20:18:47.213Z,3.70
2017-07-12T20:21:15.397Z,3.80
2017-07-12T20:23:43.577Z,2.90
2017-07-12T20:26:11.764Z,4.10
2017-07-12T20:28:39.930Z,6.05
2017-07-12T20:31:08.146Z,4.57
2017-07-12T20:33:36.290Z,4.75
2017-07-12T20:36:04.462Z,5.05
2017-07-12T20:38:32.639Z,3.15
2017-07-12T20:41:00.812Z,3.90
2017-07-12T20:43:28.988Z,4.75
2017-07-12T20:45:57.176Z,3.62
2017-07-12T20:48:25.346Z,4.90
2017-07-12T20:50:54.316Z,3.62
2017-07-12T20:53:22.491Z,10.55
2017-07-12T20:55:50.668Z,5.47
2017-07-12T20:58:19.481Z,7.00
2017-07-12T21:00:47.643Z,5.55
2017-07-12T21:03:15.844Z,5.10
2017-07-12T21:05:44.009Z,4.70
2017-07-12T21:08:12.167Z,6.50
2017-07-12T21:10:40.351Z,4.80
2017-07-12T21:13:08.540Z,5.25
2017-07-12T21:15:36.717Z,4.18
2017-07-12T21:18:04.867Z,6.22
2017-07-12T21:20:33.035Z,4.78
2017-07-12T21:23:01.231Z,4.45
2017-07-12T21:25:29.384Z,10.27
2017-07-12T21:27:57.564Z,5.07
2017-07-12T21:30:25.743Z,4.60
2017-07-12T21:32:53.929Z,4.95
2017-07-12T21:35:22.126Z,6.53
2017-07-12T21:37:51.044Z,5.35
2017-07-12T21:40:19.237Z,4.65
2017-07-12T21:42:47.382Z,5.70
2017-07-12T21:45:15.557Z,4.12
2017-07-12T21:47:43.739Z,4.30
2017-07-12T21:50:11.901Z,4.15
2017-07-12T21:52:40.081Z,5.25
2017-07-12T21:55:31.860Z,5.55
2017-07-12T21:58:23.754Z,6.80
2017-07-12T22:01:15.518Z,5.05
2017-07-12T22:04:07.473Z,3.65
2017-07-12T22:06:59.191Z,5.18
2017-07-12T22:09:50.991Z,3.75
2017-07-12T22:12:42.673Z,4.12
2017-07-12T22:15:35.094Z,4.20
2017-07-12T22:18:26.857Z,6.75
2017-07-12T22:21:18.548Z,4.62
2017-07-12T22:24:10.238Z,4.62
2017-07-12T22:27:02.158Z,3.62
2017-07-12T22:29:53.876Z,4.43
2017-07-12T22:32:45.569Z,3.72
2017-07-12T22:35:38.079Z,4.30
2017-07-12T22:38:11.842Z,3.70
2017-07-12T22:40:45.495Z,3.97
2017-07-12T22:43:19.326Z,3.78
2017-07-12T22:45:48.301Z,3.72
2017-07-12T22:48:16.462Z,4.85
2017-07-12T22:50:44.745Z,6.12
2017-07-12T22:53:12.945Z,3.80
2017-07-12T22:55:41.869Z,3.72
2017-07-12T22:58:10.027Z,4.07
2017-07-12T23:00:39.251Z,4.97
2017-07-12T23:03:07.406Z,4.82
2017-07-12T23:05:36.341Z,3.35
2017-07-12T23:08:04.524Z,3.60
2017-07-12T23:10:32.688Z,3.83
2017-07-12T23:13:00.834Z,3.40
2017-07-12T23:15:29.029Z,5.28
2017-07-12T23:17:57.194Z,4.60
2017-07-12T23:20:25.374Z,5.10
2017-07-12T23:22:53.571Z,3.80
2017-07-12T23:25:21.732Z,4.43
2017-07-12T23:27:49.974Z,4.85
2017-07-12T23:30:18.138Z,4.57
2017-07-12T23:32:47.081Z,4.72
2017-07-12T23:35:15.230Z,3.50
2017-07-12T23:37:43.442Z,3.83
2017-07-12T23:40:11.594Z,2.95
2017-07-12T23:42:39.776Z,4.18
2017-07-12T23:45:07.970Z,3.50
2017-07-12T23:47:36.140Z,3.95
2017-07-12T23:50:04.295Z,3.58
2017-07-12T23:52:32.502Z,4.03
2017-07-12T23:55:01.425Z,3.65
2017-07-12T23:57:29.574Z,4.15
2017-07-12T23:59:58.510Z,4.35
